sensor_id;sensor_type;location;lat;lon;timestamp;pressure;altitude;pressure_sealevel;temperature;humidity
31225;BME280;17847;31.524;74.366;2022-12-07T00:00:26;99037.16;;;14.68;72.68
31225;BME280;17847;31.524;74.366;2022-12-07T00:03:21;99049.38;;;14.71;72.99
31225;BME280;17847;31.524;74.366;2022-12-07T00:06:06;99043.03;;;14.65;73.17
31225;BME280;17847;31.524;74.366;2022-12-07T00:09:02;99049.81;;;14.56;73.55
31225;BME280;17847;31.524;74.366;2022-12-07T00:11:49;99048.16;;;14.55;73.64
31225;BME280;17847;31.524;74.366;2022-12-07T00:14:38;99046.22;;;14.62;73.13
31225;BME280;17847;31.524;74.366;2022-12-07T00:17:20;99058.91;;;14.62;72.99
31225;BME280;17847;31.524;74.366;2022-12-07T00:20:10;99060.63;;;14.56;73.95
31225;BME280;17847;31.524;74.366;2022-12-07T00:22:52;99064.84;;;14.52;73.86
31225;BME280;17847;31.524;74.366;2022-12-07T00:25:40;99064.59;;;14.54;73.60
31225;BME280;17847;31.524;74.366;2022-12-07T00:28:16;99079.03;;;14.47;73.93
31225;BME280;17847;31.524;74.366;2022-12-07T00:31:13;99082.06;;;14.39;74.05
31225;BME280;17847;31.524;74.366;2022-12-07T00:33:49;99081.56;;;14.42;74.14
31225;BME280;17847;31.524;74.366;2022-12-07T00:36:46;99083.81;;;14.45;73.50
31225;BME280;17847;31.524;74.366;2022-12-07T00:39:28;99085.56;;;14.40;73.51
31225;BME280;17847;31.524;74.366;2022-12-07T00:42:16;99086.75;;;14.44;73.60
31225;BME280;17847;31.524;74.366;2022-12-07T00:44:59;99086.16;;;14.42;73.97
31225;BME280;17847;31.524;74.366;2022-12-07T00:47:54;99077.91;;;14.37;74.57
31225;BME280;17847;31.524;74.366;2022-12-07T00:50:37;99088.53;;;14.50;73.98
31225;BME280;17847;31.524;74.366;2022-12-07T00:53:26;99084.66;;;14.46;74.06
31225;BME280;17847;31.524;74.366;2022-12-07T00:56:22;99090.31;;;14.56;73.68
31225;BME280;17847;31.524;74.366;2022-12-07T00:59:13;99092.19;;;14.56;73.59
31225;BME280;17847;31.524;74.366;2022-12-07T01:01:58;99092.81;;;14.58;73.06
31225;BME280;17847;31.524;74.366;2022-12-07T01:04:46;99099.94;;;14.52;72.91
31225;BME280;17847;31.524;74.366;2022-12-07T01:07:29;99097.44;;;14.39;73.16
31225;BME280;17847;31.524;74.366;2022-12-07T01:10:17;99110.91;;;14.57;72.26
31225;BME280;17847;31.524;74.366;2022-12-07T01:13:00;99109.38;;;14.61;71.69
31225;BME280;17847;31.524;74.366;2022-12-07T01:15:48;99113.03;;;14.67;71.89
31225;BME280;17847;31.524;74.366;2022-12-07T01:18:33;99113.75;;;14.62;71.45
31225;BME280;17847;31.524;74.366;2022-12-07T01:21:27;99110.81;;;14.64;71.07
31225;BME280;17847;31.524;74.366;2022-12-07T01:24:10;99115.91;;;14.54;71.54
31225;BME280;17847;31.524;74.366;2022-12-07T01:26:59;99117.47;;;14.61;71.71
31225;BME280;17847;31.524;74.366;2022-12-07T01:29:42;99124.41;;;14.57;71.50
31225;BME280;17847;31.524;74.366;2022-12-07T01:32:37;99134.00;;;14.53;71.99
31225;BME280;17847;31.524;74.366;2022-12-07T01:35:20;99130.09;;;14.49;71.39
31225;BME280;17847;31.524;74.366;2022-12-07T01:38:09;99139.72;;;14.45;72.47
31225;BME280;17847;31.524;74.366;2022-12-07T01:40:56;99142.88;;;14.42;72.27
31225;BME280;17847;31.524;74.366;2022-12-07T01:44:14;99135.94;;;14.46;72.57
31225;BME280;17847;31.524;74.366;2022-12-07T01:46:54;99143.56;;;14.37;72.91
31225;BME280;17847;31.524;74.366;2022-12-07T01:49:50;99152.47;;;14.38;72.71
31225;BME280;17847;31.524;74.366;2022-12-07T01:52:29;99155.19;;;14.38;72.49
31225;BME280;17847;31.524;74.366;2022-12-07T01:55:27;99148.84;;;14.44;72.37
31225;BME280;17847;31.524;74.366;2022-12-07T01:58:23;99146.13;;;14.32;72.41
31225;BME280;17847;31.524;74.366;2022-12-07T02:01:06;99144.94;;;14.28;72.83
31225;BME280;17847;31.524;74.366;2022-12-07T02:04:01;99151.84;;;14.24;73.11
31225;BME280;17847;31.524;74.366;2022-12-07T02:06:45;99156.47;;;14.17;73.13
31225;BME280;17847;31.524;74.366;2022-12-07T02:09:34;99156.47;;;14.17;73.68
31225;BME280;17847;31.524;74.366;2022-12-07T02:12:10;99166.91;;;14.13;74.19
31225;BME280;17847;31.524;74.366;2022-12-07T02:15:06;99166.25;;;14.18;73.92
31225;BME280;17847;31.524;74.366;2022-12-07T02:30:43;99164.41;;;14.30;74.63
31225;BME280;17847;31.524;74.366;2022-12-07T02:33:35;99173.75;;;14.46;73.80
31225;BME280;17847;31.524;74.366;2022-12-07T02:36:30;99170.31;;;14.57;72.90
31225;BME280;17847;31.524;74.366;2022-12-07T02:39:19;99173.66;;;14.71;72.49
31225;BME280;17847;31.524;74.366;2022-12-07T02:42:23;99169.34;;;14.82;72.45
31225;BME280;17847;31.524;74.366;2022-12-07T02:45:08;99174.53;;;14.83;71.90
31225;BME280;17847;31.524;74.366;2022-12-07T02:47:59;99183.22;;;14.85;72.04
31225;BME280;17847;31.524;74.366;2022-12-07T02:50:50;99200.63;;;14.90;71.57
31225;BME280;17847;31.524;74.366;2022-12-07T02:53:42;99201.13;;;14.98;71.49
31225;BME280;17847;31.524;74.366;2022-12-07T02:56:40;99201.97;;;15.11;70.88
31225;BME280;17847;31.524;74.366;2022-12-07T03:09:03;99220.75;;;15.59;70.94
31225;BME280;17847;31.524;74.366;2022-12-07T03:12:15;99226.16;;;15.71;70.09
31225;BME280;17847;31.524;74.366;2022-12-07T03:15:42;99234.19;;;15.90;69.46
31225;BME280;17847;31.524;74.366;2022-12-07T03:18:21;99239.00;;;16.11;68.21
31225;BME280;17847;31.524;74.366;2022-12-07T03:21:02;99240.47;;;16.42;67.39
31225;BME280;17847;31.524;74.366;2022-12-07T03:24:00;99248.97;;;16.87;65.46
31225;BME280;17847;31.524;74.366;2022-12-07T03:26:42;99253.19;;;16.94;64.29
31225;BME280;17847;31.524;74.366;2022-12-07T03:29:47;99258.84;;;17.21;64.03
31225;BME280;17847;31.524;74.366;2022-12-07T03:32:48;99256.94;;;17.85;62.39
31225;BME280;17847;31.524;74.366;2022-12-07T03:36:00;99270.81;;;18.44;60.61
31225;BME280;17847;31.524;74.366;2022-12-07T03:39:02;99275.66;;;18.64;60.49
31225;BME280;17847;31.524;74.366;2022-12-07T03:41:52;99275.28;;;18.77;60.12
31225;BME280;17847;31.524;74.366;2022-12-07T03:44:35;99285.88;;;19.23;56.89
31225;BME280;17847;31.524;74.366;2022-12-07T03:47:53;99284.81;;;19.84;55.55
31225;BME280;17847;31.524;74.366;2022-12-07T03:50:57;99290.38;;;19.99;53.15
31225;BME280;17847;31.524;74.366;2022-12-07T03:53:58;99299.09;;;20.01;51.84
31225;BME280;17847;31.524;74.366;2022-12-07T03:56:43;99295.78;;;20.95;52.68
31225;BME280;17847;31.524;74.366;2022-12-07T03:59:33;99292.56;;;21.08;51.06
31225;BME280;17847;31.524;74.366;2022-12-07T04:02:16;99303.50;;;21.23;50.40
31225;BME280;17847;31.524;74.366;2022-12-07T04:05:12;99299.22;;;21.79;48.24
31225;BME280;17847;31.524;74.366;2022-12-07T04:07:47;99293.75;;;21.48;48.14
31225;BME280;17847;31.524;74.366;2022-12-07T04:10:42;99301.41;;;22.07;48.32
31225;BME280;17847;31.524;74.366;2022-12-07T04:13:18;99298.66;;;21.97;48.94
31225;BME280;17847;31.524;74.366;2022-12-07T04:16:13;99304.41;;;21.96;45.84
31225;BME280;17847;31.524;74.366;2022-12-07T04:18:49;99308.50;;;22.03;47.00
31225;BME280;17847;31.524;74.366;2022-12-07T04:21:45;99304.09;;;22.18;45.90
31225;BME280;17847;31.524;74.366;2022-12-07T04:24:21;99306.53;;;22.45;46.99
31225;BME280;17847;31.524;74.366;2022-12-07T04:27:17;99306.28;;;22.31;45.53
31225;BME280;17847;31.524;74.366;2022-12-07T04:30:00;99315.88;;;21.77;45.59
31225;BME280;17847;31.524;74.366;2022-12-07T04:32:48;99320.53;;;22.02;46.56
31225;BME280;17847;31.524;74.366;2022-12-07T04:35:31;99321.03;;;22.20;46.82
31225;BME280;17847;31.524;74.366;2022-12-07T04:38:26;99315.59;;;22.25;46.82
31225;BME280;17847;31.524;74.366;2022-12-07T04:41:22;99318.88;;;22.06;45.08
31225;BME280;17847;31.524;74.366;2022-12-07T04:44:05;99312.88;;;22.30;44.68
31225;BME280;17847;31.524;74.366;2022-12-07T04:46:56;99317.53;;;22.04;45.82
31225;BME280;17847;31.524;74.366;2022-12-07T04:49:39;99310.34;;;21.41;47.74
31225;BME280;17847;31.524;74.366;2022-12-07T04:52:34;99313.69;;;21.59;46.52
31225;BME280;17847;31.524;74.366;2022-12-07T04:55:17;99307.97;;;21.50;46.24
31225;BME280;17847;31.524;74.366;2022-12-07T04:58:13;99310.63;;;21.40;48.18
31225;BME280;17847;31.524;74.366;2022-12-07T05:00:49;99304.41;;;21.55;46.83
31225;BME280;17847;31.524;74.366;2022-12-07T05:03:44;99306.59;;;21.63;47.62
31225;BME280;17847;31.524;74.366;2022-12-07T05:06:20;99310.69;;;21.50;45.72
31225;BME280;17847;31.524;74.366;2022-12-07T05:09:16;99318.34;;;21.63;47.37
31225;BME280;17847;31.524;74.366;2022-12-07T05:11:59;99319.72;;;21.71;47.15
31225;BME280;17847;31.524;74.366;2022-12-07T05:14:47;99314.81;;;21.78;46.73
31225;BME280;17847;31.524;74.366;2022-12-07T05:17:29;99312.06;;;21.83;48.64
31225;BME280;17847;31.524;74.366;2022-12-07T05:20:17;99305.25;;;21.86;45.88
31225;BME280;17847;31.524;74.366;2022-12-07T05:22:59;99304.16;;;21.92;45.49
31225;BME280;17847;31.524;74.366;2022-12-07T05:25:48;99298.13;;;21.85;45.57
31225;BME280;17847;31.524;74.366;2022-12-07T05:28:36;99301.66;;;22.11;43.74
31225;BME280;17847;31.524;74.366;2022-12-07T05:31:19;99297.28;;;22.36;43.78
31225;BME280;17847;31.524;74.366;2022-12-07T05:34:15;99292.28;;;22.53;44.72
31225;BME280;17847;31.524;74.366;2022-12-07T05:36:51;99289.53;;;22.58;42.55
31225;BME280;17847;31.524;74.366;2022-12-07T05:39:46;99292.16;;;22.89;43.99
31225;BME280;17847;31.524;74.366;2022-12-07T05:42:28;99293.66;;;23.16;42.85
31225;BME280;17847;31.524;74.366;2022-12-07T05:45:16;99284.41;;;23.51;42.64
31225;BME280;17847;31.524;74.366;2022-12-07T05:47:59;99289.25;;;23.59;41.70
31225;BME280;17847;31.524;74.366;2022-12-07T05:50:49;99281.78;;;23.36;41.48
31225;BME280;17847;31.524;74.366;2022-12-07T05:53:25;99281.44;;;22.93;42.66
31225;BME280;17847;31.524;74.366;2022-12-07T05:56:20;99274.66;;;23.35;41.67
31225;BME280;17847;31.524;74.366;2022-12-07T05:59:03;99272.78;;;23.64;39.23
31225;BME280;17847;31.524;74.366;2022-12-07T06:02:13;99267.56;;;24.02;38.46
31225;BME280;17847;31.524;74.366;2022-12-07T06:04:49;99260.91;;;24.09;38.42
31225;BME280;17847;31.524;74.366;2022-12-07T06:07:44;99255.00;;;23.96;40.62
31225;BME280;17847;31.524;74.366;2022-12-07T06:10:26;99251.47;;;24.20;41.00
31225;BME280;17847;31.524;74.366;2022-12-07T06:13:14;99253.16;;;24.40;41.96
31225;BME280;17847;31.524;74.366;2022-12-07T06:15:56;99241.88;;;24.41;42.20
31225;BME280;17847;31.524;74.366;2022-12-07T06:18:44;99238.03;;;24.42;40.60
31225;BME280;17847;31.524;74.366;2022-12-07T06:21:26;99241.19;;;24.55;42.49
31225;BME280;17847;31.524;74.366;2022-12-07T06:24:16;99233.84;;;24.26;40.05
31225;BME280;17847;31.524;74.366;2022-12-07T06:26:53;99233.66;;;24.41;41.63
31225;BME280;17847;31.524;74.366;2022-12-07T06:29:48;99230.34;;;24.45;40.52
31225;BME280;17847;31.524;74.366;2022-12-07T06:32:24;99219.84;;;24.52;39.42
31225;BME280;17847;31.524;74.366;2022-12-07T06:35:19;99217.66;;;24.49;37.82
31225;BME280;17847;31.524;74.366;2022-12-07T06:38:02;99208.38;;;24.20;38.98
31225;BME280;17847;31.524;74.366;2022-12-07T06:40:57;99207.75;;;24.53;38.85
31225;BME280;17847;31.524;74.366;2022-12-07T06:43:33;99201.38;;;24.33;37.84
31225;BME280;17847;31.524;74.366;2022-12-07T06:46:34;99196.50;;;24.49;37.18
31225;BME280;17847;31.524;74.366;2022-12-07T06:49:13;99190.78;;;24.70;39.21
31225;BME280;17847;31.524;74.366;2022-12-07T06:52:08;99181.53;;;24.41;37.48
31225;BME280;17847;31.524;74.366;2022-12-07T06:54:44;99179.22;;;24.54;38.57
31225;BME280;17847;31.524;74.366;2022-12-07T06:57:39;99172.56;;;24.79;40.75
31225;BME280;17847;31.524;74.366;2022-12-07T07:00:15;99170.69;;;24.74;38.51
31225;BME280;17847;31.524;74.366;2022-12-07T07:03:11;99170.31;;;24.81;41.23
31225;BME280;17847;31.524;74.366;2022-12-07T07:05:53;99163.63;;;24.87;38.64
31225;BME280;17847;31.524;74.366;2022-12-07T07:08:42;99156.53;;;24.86;37.38
31225;BME280;17847;31.524;74.366;2022-12-07T07:11:24;99150.19;;;24.86;39.56
31225;BME280;17847;31.524;74.366;2022-12-07T07:14:12;99145.44;;;24.91;38.56
31225;BME280;17847;31.524;74.366;2022-12-07T07:16:58;99140.94;;;24.81;37.49
31225;BME280;17847;31.524;74.366;2022-12-07T07:19:46;99135.22;;;24.97;39.69
31225;BME280;17847;31.524;74.366;2022-12-07T07:22:29;99136.25;;;24.82;37.70
31225;BME280;17847;31.524;74.366;2022-12-07T07:25:17;99135.09;;;24.88;38.24
31225;BME280;17847;31.524;74.366;2022-12-07T07:28:06;99136.13;;;24.92;37.70
31225;BME280;17847;31.524;74.366;2022-12-07T07:31:01;99125.63;;;25.13;37.77
31225;BME280;17847;31.524;74.366;2022-12-07T07:33:45;99124.19;;;24.64;38.00
31225;BME280;17847;31.524;74.366;2022-12-07T07:36:41;99118.09;;;24.67;37.64
31225;BME280;17847;31.524;74.366;2022-12-07T07:39:24;99115.66;;;24.85;38.91
31225;BME280;17847;31.524;74.366;2022-12-07T07:42:13;99102.38;;;24.54;37.40
31225;BME280;17847;31.524;74.366;2022-12-07T07:44:56;99110.34;;;25.07;39.15
31225;BME280;17847;31.524;74.366;2022-12-07T07:47:45;99109.41;;;24.98;38.76
31225;BME280;17847;31.524;74.366;2022-12-07T07:50:27;99093.69;;;24.85;38.38
31225;BME280;17847;31.524;74.366;2022-12-07T07:53:16;99096.69;;;25.02;39.56
31225;BME280;17847;31.524;74.366;2022-12-07T07:55:53;99087.53;;;25.07;39.76
31225;BME280;17847;31.524;74.366;2022-12-07T07:58:52;99094.47;;;25.04;38.98
31225;BME280;17847;31.524;74.366;2022-12-07T08:01:34;99077.28;;;25.12;38.18
31225;BME280;17847;31.524;74.366;2022-12-07T08:04:24;99073.78;;;25.26;38.40
31225;BME280;17847;31.524;74.366;2022-12-07T08:07:07;99071.25;;;24.96;39.56
31225;BME280;17847;31.524;74.366;2022-12-07T08:09:55;99058.28;;;25.16;39.16
31225;BME280;17847;31.524;74.366;2022-12-07T08:12:39;99055.88;;;24.95;38.76
31225;BME280;17847;31.524;74.366;2022-12-07T08:15:48;99045.47;;;25.11;39.18
31225;BME280;17847;31.524;74.366;2022-12-07T08:18:24;99043.03;;;24.77;40.43
31225;BME280;17847;31.524;74.366;2022-12-07T08:21:19;99041.34;;;24.95;39.66
31225;BME280;17847;31.524;74.366;2022-12-07T08:24:02;99036.84;;;24.85;38.98
31225;BME280;17847;31.524;74.366;2022-12-07T08:26:51;99026.63;;;25.05;39.78
31225;BME280;17847;31.524;74.366;2022-12-07T08:29:39;99033.81;;;24.87;39.42
31225;BME280;17847;31.524;74.366;2022-12-07T08:32:21;99021.09;;;24.91;38.98
31225;BME280;17847;31.524;74.366;2022-12-07T08:35:10;99022.22;;;24.90;39.82
31225;BME280;17847;31.524;74.366;2022-12-07T08:37:46;99016.19;;;24.55;39.38
31225;BME280;17847;31.524;74.366;2022-12-07T08:40:41;99005.94;;;24.93;39.96
31225;BME280;17847;31.524;74.366;2022-12-07T08:43:23;99002.00;;;24.99;39.08
31225;BME280;17847;31.524;74.366;2022-12-07T08:46:21;99002.91;;;24.95;38.87
31225;BME280;17847;31.524;74.366;2022-12-07T08:49:09;98997.56;;;24.71;38.82
31225;BME280;17847;31.524;74.366;2022-12-07T08:51:58;98994.28;;;25.15;38.60
31225;BME280;17847;31.524;74.366;2022-12-07T08:54:41;98982.81;;;25.13;38.91
31225;BME280;17847;31.524;74.366;2022-12-07T08:57:32;98977.41;;;25.08;40.20
31225;BME280;17847;31.524;74.366;2022-12-07T09:00:17;98972.59;;;24.86;39.68
31225;BME280;17847;31.524;74.366;2022-12-07T09:03:06;98969.38;;;24.98;39.32
31225;BME280;17847;31.524;74.366;2022-12-07T09:05:48;98971.91;;;25.08;38.80
31225;BME280;17847;31.524;74.366;2022-12-07T09:08:43;98973.75;;;25.13;39.04
31225;BME280;17847;31.524;74.366;2022-12-07T09:11:40;98967.84;;;25.06;38.71
31225;BME280;17847;31.524;74.366;2022-12-07T09:14:23;98968.00;;;24.81;38.96
31225;BME280;17847;31.524;74.366;2022-12-07T09:17:13;98972.19;;;24.79;37.74
31225;BME280;17847;31.524;74.366;2022-12-07T09:19:56;98970.75;;;24.81;37.77
31225;BME280;17847;31.524;74.366;2022-12-07T09:22:45;98968.91;;;24.77;37.84
31225;BME280;17847;31.524;74.366;2022-12-07T09:25:28;98961.50;;;24.91;37.56
31225;BME280;17847;31.524;74.366;2022-12-07T09:28:23;98968.69;;;24.73;37.12
31225;BME280;17847;31.524;74.366;2022-12-07T09:31:06;98961.84;;;24.90;37.00
31225;BME280;17847;31.524;74.366;2022-12-07T09:34:03;98963.38;;;24.96;36.08
31225;BME280;17847;31.524;74.366;2022-12-07T09:36:47;98969.16;;;25.08;35.55
31225;BME280;17847;31.524;74.366;2022-12-07T09:39:38;98961.69;;;24.81;35.50
31225;BME280;17847;31.524;74.366;2022-12-07T09:42:34;98961.91;;;24.85;35.57
31225;BME280;17847;31.524;74.366;2022-12-07T09:45:36;98958.03;;;24.86;36.33
31225;BME280;17847;31.524;74.366;2022-12-07T09:48:29;98951.66;;;24.76;36.04
31225;BME280;17847;31.524;74.366;2022-12-07T09:51:23;98945.75;;;24.83;35.98
31225;BME280;17847;31.524;74.366;2022-12-07T09:53:59;98948.97;;;24.71;35.84
31225;BME280;17847;31.524;74.366;2022-12-07T09:56:55;98939.25;;;24.79;35.14
31225;BME280;17847;31.524;74.366;2022-12-07T09:59:31;98941.47;;;24.77;35.36
31225;BME280;17847;31.524;74.366;2022-12-07T10:02:39;98932.69;;;24.61;36.38
31225;BME280;17847;31.524;74.366;2022-12-07T10:05:32;98940.25;;;24.69;35.28
31225;BME280;17847;31.524;74.366;2022-12-07T10:08:25;98932.28;;;24.68;36.32
31225;BME280;17847;31.524;74.366;2022-12-07T10:11:07;98921.69;;;24.61;36.96
31225;BME280;17847;31.524;74.366;2022-12-07T10:14:12;98930.78;;;24.61;36.61
31225;BME280;17847;31.524;74.366;2022-12-07T10:17:39;98928.03;;;24.75;36.76
31225;BME280;17847;31.524;74.366;2022-12-07T10:20:28;98927.59;;;24.54;38.62
31225;BME280;17847;31.524;74.366;2022-12-07T10:23:18;98933.81;;;24.41;39.87
31225;BME280;17847;31.524;74.366;2022-12-07T10:26:38;98922.41;;;24.34;38.12
31225;BME280;17847;31.524;74.366;2022-12-07T10:29:36;98916.56;;;24.40;38.70
31225;BME280;17847;31.524;74.366;2022-12-07T10:35:27;98925.59;;;24.08;38.18
31225;BME280;17847;31.524;74.366;2022-12-07T10:38:16;98916.34;;;24.37;38.07
31225;BME280;17847;31.524;74.366;2022-12-07T10:41:11;98910.41;;;24.30;38.21
31225;BME280;17847;31.524;74.366;2022-12-07T10:43:56;98908.44;;;24.16;38.28
31225;BME280;17847;31.524;74.366;2022-12-07T10:59:57;98889.72;;;23.67;42.87
31225;BME280;17847;31.524;74.366;2022-12-07T11:06:46;98904.56;;;23.41;41.37
31225;BME280;17847;31.524;74.366;2022-12-07T11:13:08;98913.41;;;23.57;41.62
31225;BME280;17847;31.524;74.366;2022-12-07T11:22:13;98910.34;;;23.16;43.40
31225;BME280;17847;31.524;74.366;2022-12-07T11:37:41;98907.78;;;22.47;47.64
31225;BME280;17847;31.524;74.366;2022-12-07T11:40:30;98907.63;;;22.33;49.11
31225;BME280;17847;31.524;74.366;2022-12-07T11:43:28;98915.47;;;22.05;52.13
31225;BME280;17847;31.524;74.366;2022-12-07T11:46:15;98904.06;;;21.93;50.32
31225;BME280;17847;31.524;74.366;2022-12-07T11:49:29;98896.72;;;21.94;50.46
31225;BME280;17847;31.524;74.366;2022-12-07T11:52:32;98894.94;;;21.68;53.11
31225;BME280;17847;31.524;74.366;2022-12-07T11:55:50;98898.88;;;21.52;53.16
31225;BME280;17847;31.524;74.366;2022-12-07T12:04:30;98899.50;;;21.28;54.68
31225;BME280;17847;31.524;74.366;2022-12-07T12:07:23;98906.19;;;20.97;54.42
31225;BME280;17847;31.524;74.366;2022-12-07T12:11:10;98902.66;;;20.81;53.23
31225;BME280;17847;31.524;74.366;2022-12-07T12:26:21;98908.44;;;20.23;59.27
31225;BME280;17847;31.524;74.366;2022-12-07T12:29:06;98908.72;;;20.16;58.79
31225;BME280;17847;31.524;74.366;2022-12-07T12:32:21;98914.44;;;20.20;58.19
31225;BME280;17847;31.524;74.366;2022-12-07T12:35:22;98918.25;;;20.08;59.15
31225;BME280;17847;31.524;74.366;2022-12-07T12:38:33;98909.50;;;19.91;59.83
31225;BME280;17847;31.524;74.366;2022-12-07T12:50:45;98919.22;;;19.61;61.39
31225;BME280;17847;31.524;74.366;2022-12-07T12:53:25;98913.50;;;19.58;61.83
31225;BME280;17847;31.524;74.366;2022-12-07T12:59:34;98922.47;;;19.58;60.83
31225;BME280;17847;31.524;74.366;2022-12-07T13:02:38;98931.75;;;19.57;62.15
31225;BME280;17847;31.524;74.366;2022-12-07T13:05:23;98934.41;;;19.47;61.72
31225;BME280;17847;31.524;74.366;2022-12-07T13:08:24;98929.25;;;19.45;62.21
31225;BME280;17847;31.524;74.366;2022-12-07T13:11:17;98931.69;;;19.47;61.75
31225;BME280;17847;31.524;74.366;2022-12-07T13:21:01;98951.22;;;19.33;63.02
31225;BME280;17847;31.524;74.366;2022-12-07T13:26:43;98950.31;;;19.12;63.31
31225;BME280;17847;31.524;74.366;2022-12-07T13:29:37;98950.31;;;19.12;63.37
31225;BME280;17847;31.524;74.366;2022-12-07T13:32:32;98945.97;;;19.11;63.60
31225;BME280;17847;31.524;74.366;2022-12-07T13:35:36;98947.28;;;19.04;64.58
31225;BME280;17847;31.524;74.366;2022-12-07T13:38:35;98952.69;;;18.98;64.17
31225;BME280;17847;31.524;74.366;2022-12-07T13:41:21;98947.81;;;18.95;64.46
31225;BME280;17847;31.524;74.366;2022-12-07T13:44:18;98948.00;;;18.89;64.74
31225;BME280;17847;31.524;74.366;2022-12-07T13:49:56;98956.69;;;18.86;65.41
31225;BME280;17847;31.524;74.366;2022-12-07T13:52:32;98959.63;;;18.79;65.44
31225;BME280;17847;31.524;74.366;2022-12-07T13:55:29;98957.41;;;18.76;65.57
31225;BME280;17847;31.524;74.366;2022-12-07T13:58:05;98956.31;;;18.72;65.82
31225;BME280;17847;31.524;74.366;2022-12-07T14:01:00;98960.41;;;18.74;65.95
31225;BME280;17847;31.524;74.366;2022-12-07T14:03:36;98955.22;;;18.73;65.73
31225;BME280;17847;31.524;74.366;2022-12-07T14:06:31;98949.25;;;18.76;65.67
31225;BME280;17847;31.524;74.366;2022-12-07T14:09:18;98951.53;;;18.89;64.05
31225;BME280;17847;31.524;74.366;2022-12-07T14:12:13;98956.97;;;18.84;64.58
31225;BME280;17847;31.524;74.366;2022-12-07T14:14:57;98966.41;;;18.76;65.71
31225;BME280;17847;31.524;74.366;2022-12-07T14:17:55;98959.56;;;18.74;65.79
31225;BME280;17847;31.524;74.366;2022-12-07T14:20:40;98963.53;;;18.56;66.46
31225;BME280;17847;31.524;74.366;2022-12-07T14:23:29;98966.25;;;18.56;66.67
31225;BME280;17847;31.524;74.366;2022-12-07T14:26:16;98967.31;;;18.50;66.99
31225;BME280;17847;31.524;74.366;2022-12-07T14:29:41;98973.97;;;18.37;67.21
31225;BME280;17847;31.524;74.366;2022-12-07T14:32:38;98977.25;;;18.39;66.69
31225;BME280;17847;31.524;74.366;2022-12-07T14:35:20;98979.16;;;18.38;66.73
31225;BME280;17847;31.524;74.366;2022-12-07T14:38:09;98974.47;;;18.29;67.00
31225;BME280;17847;31.524;74.366;2022-12-07T14:40:53;98977.63;;;18.20;67.44
31225;BME280;17847;31.524;74.366;2022-12-07T14:44:11;98979.88;;;18.29;67.81
31225;BME280;17847;31.524;74.366;2022-12-07T14:46:58;98984.47;;;18.28;67.31
31225;BME280;17847;31.524;74.366;2022-12-07T14:50:16;98996.78;;;18.36;67.08
31225;BME280;17847;31.524;74.366;2022-12-07T14:53:02;98981.44;;;18.19;67.95
31225;BME280;17847;31.524;74.366;2022-12-07T14:56:02;98986.34;;;18.23;67.98
31225;BME280;17847;31.524;74.366;2022-12-07T14:58:47;98996.84;;;18.14;68.57
31225;BME280;17847;31.524;74.366;2022-12-07T15:01:35;98990.66;;;18.18;68.32
31225;BME280;17847;31.524;74.366;2022-12-07T15:04:18;98997.09;;;18.12;68.36
31225;BME280;17847;31.524;74.366;2022-12-07T15:07:20;98990.56;;;18.08;68.72
31225;BME280;17847;31.524;74.366;2022-12-07T15:10:04;98997.03;;;18.02;69.19
31225;BME280;17847;31.524;74.366;2022-12-07T15:13:03;98994.66;;;18.11;68.13
31225;BME280;17847;31.524;74.366;2022-12-07T15:16:07;98989.47;;;18.36;66.72
31225;BME280;17847;31.524;74.366;2022-12-07T15:18:57;98990.28;;;18.37;66.11
31225;BME280;17847;31.524;74.366;2022-12-07T15:22:00;99001.94;;;18.32;65.87
31225;BME280;17847;31.524;74.366;2022-12-07T15:24:48;99012.31;;;18.41;64.95
31225;BME280;17847;31.524;74.366;2022-12-07T15:27:33;99003.06;;;18.36;64.91
31225;BME280;17847;31.524;74.366;2022-12-07T15:30:28;99011.47;;;18.35;64.66
31225;BME280;17847;31.524;74.366;2022-12-07T15:33:13;99020.38;;;18.30;64.96
31225;BME280;17847;31.524;74.366;2022-12-07T15:36:03;99025.22;;;18.23;65.19
31225;BME280;17847;31.524;74.366;2022-12-07T15:38:45;99027.94;;;18.28;64.88
31225;BME280;17847;31.524;74.366;2022-12-07T15:41:55;99029.66;;;18.34;64.75
31225;BME280;17847;31.524;74.366;2022-12-07T15:44:31;99028.25;;;18.32;64.59
31225;BME280;17847;31.524;74.366;2022-12-07T15:47:45;99033.50;;;18.38;64.13
31225;BME280;17847;31.524;74.366;2022-12-07T15:50:41;99028.31;;;18.37;63.45
31225;BME280;17847;31.524;74.366;2022-12-07T15:53:37;99031.44;;;18.24;64.34
31225;BME280;17847;31.524;74.366;2022-12-07T15:56:13;99037.44;;;18.26;63.78
31225;BME280;17847;31.524;74.366;2022-12-07T15:59:08;99042.63;;;18.27;63.70
31225;BME280;17847;31.524;74.366;2022-12-07T16:01:44;99041.69;;;18.16;64.38
31225;BME280;17847;31.524;74.366;2022-12-07T16:04:39;99026.53;;;18.20;63.68
31225;BME280;17847;31.524;74.366;2022-12-07T16:07:17;99037.06;;;18.17;63.63
31225;BME280;17847;31.524;74.366;2022-12-07T16:10:13;99034.72;;;18.26;64.01
31225;BME280;17847;31.524;74.366;2022-12-07T16:12:55;99027.13;;;18.28;63.55
31225;BME280;17847;31.524;74.366;2022-12-07T16:15:50;99024.44;;;18.28;63.38
31225;BME280;17847;31.524;74.366;2022-12-07T16:18:27;99023.06;;;18.25;63.49
31225;BME280;17847;31.524;74.366;2022-12-07T16:21:23;99024.66;;;18.21;63.35
31225;BME280;17847;31.524;74.366;2022-12-07T16:24:07;99025.66;;;18.15;63.37
31225;BME280;17847;31.524;74.366;2022-12-07T16:27:03;99037.34;;;18.15;64.46
31225;BME280;17847;31.524;74.366;2022-12-07T16:29:52;99041.13;;;18.14;64.38
31225;BME280;17847;31.524;74.366;2022-12-07T16:32:36;99034.00;;;18.08;64.42
31225;BME280;17847;31.524;74.366;2022-12-07T16:35:25;99035.06;;;18.07;64.88
31225;BME280;17847;31.524;74.366;2022-12-07T16:38:02;99041.84;;;18.05;63.51